sensor_id;sensor_type;location;lat;lon;timestamp;pressure;altitude;pressure_sealevel;temperature;humidity
70952;BME280;69214;55.880;37.542;2023-07-02T00:00:09;97146.72;;;15.93;73.72
70952;BME280;69214;55.880;37.542;2023-07-02T00:02:37;97177.78;;;16.02;74.26
70952;BME280;69214;55.880;37.542;2023-07-02T00:05:04;97170.66;;;16.01;74.23
70952;BME280;69214;55.880;37.542;2023-07-02T00:07:31;97167.75;;;15.98;74.40
70952;BME280;69214;55.880;37.542;2023-07-02T00:09:57;97169.22;;;15.95;74.80
70952;BME280;69214;55.880;37.542;2023-07-02T00:12:23;97175.69;;;15.91;74.86
70952;BME280;69214;55.880;37.542;2023-07-02T00:14:49;97177.13;;;15.88;74.73
70952;BME280;69214;55.880;37.542;2023-07-02T00:17:19;97166.78;;;15.85;75.00
70952;BME280;69214;55.880;37.542;2023-07-02T00:19:45;97169.69;;;15.80;74.95
70952;BME280;69214;55.880;37.542;2023-07-02T00:22:12;97176.97;;;15.76;75.29
70952;BME280;69214;55.880;37.542;2023-07-02T00:24:38;97174.34;;;15.71;75.14
70952;BME280;69214;55.880;37.542;2023-07-02T00:27:04;97175.00;;;15.68;75.19
70952;BME280;69214;55.880;37.542;2023-07-02T00:29:30;97178.72;;;15.63;75.72
70952;BME280;69214;55.880;37.542;2023-07-02T00:31:56;97186.00;;;15.59;75.81
70952;BME280;69214;55.880;37.542;2023-07-02T00:34:22;97187.75;;;15.55;75.97
70952;BME280;69214;55.880;37.542;2023-07-02T00:36:49;97190.34;;;15.51;76.05
70952;BME280;69214;55.880;37.542;2023-07-02T00:39:16;97173.50;;;15.44;75.37
70952;BME280;69214;55.880;37.542;2023-07-02T00:41:44;97182.41;;;15.50;75.50
70952;BME280;69214;55.880;37.542;2023-07-02T00:44:13;97179.97;;;15.48;75.79
70952;BME280;69214;55.880;37.542;2023-07-02T00:46:39;97176.91;;;15.50;75.62
70952;BME280;69214;55.880;37.542;2023-07-02T00:49:05;97179.66;;;15.50;75.83
70952;BME280;69214;55.880;37.542;2023-07-02T00:51:31;97196.47;;;15.48;76.17
70952;BME280;69214;55.880;37.542;2023-07-02T00:53:58;97183.03;;;15.47;76.34
70952;BME280;69214;55.880;37.542;2023-07-02T00:56:26;97198.56;;;15.43;76.68
70952;BME280;69214;55.880;37.542;2023-07-02T00:58:55;97202.09;;;15.43;75.51
70952;BME280;69214;55.880;37.542;2023-07-02T01:01:26;97202.09;;;15.43;76.17
70952;BME280;69214;55.880;37.542;2023-07-02T01:04:01;97203.25;;;15.42;74.58
70952;BME280;69214;55.880;37.542;2023-07-02T01:06:34;97201.63;;;15.41;76.33
70952;BME280;69214;55.880;37.542;2023-07-02T01:09:05;97199.69;;;15.42;76.34
70952;BME280;69214;55.880;37.542;2023-07-02T01:11:51;97194.81;;;15.39;77.48
70952;BME280;69214;55.880;37.542;2023-07-02T01:14:26;97194.50;;;15.40;75.99
70952;BME280;69214;55.880;37.542;2023-07-02T01:16:53;97195.00;;;15.42;76.80
70952;BME280;69214;55.880;37.542;2023-07-02T01:19:52;97187.59;;;15.51;73.46
70952;BME280;69214;55.880;37.542;2023-07-02T01:22:25;97200.56;;;15.68;75.56
70952;BME280;69214;55.880;37.542;2023-07-02T01:24:52;97199.31;;;16.00;76.37
70952;BME280;69214;55.880;37.542;2023-07-02T01:27:19;97197.38;;;16.18;75.54
70952;BME280;69214;55.880;37.542;2023-07-02T01:29:50;97202.06;;;16.17;75.33
70952;BME280;69214;55.880;37.542;2023-07-02T01:32:18;97204.19;;;16.12;75.66
70952;BME280;69214;55.880;37.542;2023-07-02T01:34:44;97205.63;;;16.09;75.52
70952;BME280;69214;55.880;37.542;2023-07-02T01:37:17;97199.47;;;16.04;74.76
70952;BME280;69214;55.880;37.542;2023-07-02T01:39:44;97211.63;;;16.11;75.81
70952;BME280;69214;55.880;37.542;2023-07-02T01:42:15;97210.50;;;16.12;75.30
70952;BME280;69214;55.880;37.542;2023-07-02T01:44:43;97208.06;;;16.11;75.34
70952;BME280;69214;55.880;37.542;2023-07-02T01:47:09;97205.78;;;16.13;75.69
70952;BME280;69214;55.880;37.542;2023-07-02T01:49:37;97202.06;;;16.17;75.96
70952;BME280;69214;55.880;37.542;2023-07-02T01:52:04;97190.59;;;16.24;75.33
70952;BME280;69214;55.880;37.542;2023-07-02T01:54:31;97211.31;;;16.39;75.03
70952;BME280;69214;55.880;37.542;2023-07-02T01:56:58;97200.59;;;16.46;75.47
70952;BME280;69214;55.880;37.542;2023-07-02T01:59:25;97189.91;;;16.62;74.79
70952;BME280;69214;55.880;37.542;2023-07-02T02:01:52;97206.56;;;16.82;74.23
70952;BME280;69214;55.880;37.542;2023-07-02T02:04:18;97195.53;;;16.91;74.14
70952;BME280;69214;55.880;37.542;2023-07-02T02:06:44;97211.97;;;17.17;73.69
70952;BME280;69214;55.880;37.542;2023-07-02T02:09:11;97210.28;;;17.33;73.13
70952;BME280;69214;55.880;37.542;2023-07-02T02:11:44;97204.88;;;17.45;71.15
70952;BME280;69214;55.880;37.542;2023-07-02T02:14:10;97208.38;;;17.63;72.09
70952;BME280;69214;55.880;37.542;2023-07-02T02:16:36;97215.16;;;17.74;71.72
70952;BME280;69214;55.880;37.542;2023-07-02T02:19:03;97204.06;;;17.83;71.64
70952;BME280;69214;55.880;37.542;2023-07-02T02:21:29;97203.13;;;18.00;71.17
70952;BME280;69214;55.880;37.542;2023-07-02T02:23:55;97204.63;;;18.18;70.95
70952;BME280;69214;55.880;37.542;2023-07-02T02:26:22;97204.75;;;18.42;70.26
70952;BME280;69214;55.880;37.542;2023-07-02T02:28:49;97202.50;;;18.77;69.48
70952;BME280;69214;55.880;37.542;2023-07-02T02:31:15;97198.50;;;19.81;66.75
70952;BME280;69214;55.880;37.542;2023-07-02T02:33:41;97196.66;;;20.93;63.38
70952;BME280;69214;55.880;37.542;2023-07-02T02:36:07;97190.28;;;21.52;61.37
70952;BME280;69214;55.880;37.542;2023-07-02T02:38:34;97196.81;;;22.26;59.50
70952;BME280;69214;55.880;37.542;2023-07-02T02:41:02;97197.19;;;22.44;58.96
70952;BME280;69214;55.880;37.542;2023-07-02T02:43:32;97203.78;;;22.75;58.32
70952;BME280;69214;55.880;37.542;2023-07-02T02:45:58;97209.97;;;23.72;56.12
70952;BME280;69214;55.880;37.542;2023-07-02T02:48:25;97202.41;;;24.25;54.66
70952;BME280;69214;55.880;37.542;2023-07-02T02:50:51;97195.56;;;24.19;53.92
70952;BME280;69214;55.880;37.542;2023-07-02T02:53:16;97198.25;;;23.85;54.75
70952;BME280;69214;55.880;37.542;2023-07-02T02:55:42;97223.44;;;23.93;54.96
70952;BME280;69214;55.880;37.542;2023-07-02T02:58:08;97220.19;;;23.64;55.42
70952;BME280;69214;55.880;37.542;2023-07-02T03:00:34;97224.13;;;22.98;56.99
70952;BME280;69214;55.880;37.542;2023-07-02T03:03:00;97222.31;;;22.32;58.83
70952;BME280;69214;55.880;37.542;2023-07-02T03:05:26;97234.41;;;21.73;60.21
70952;BME280;69214;55.880;37.542;2023-07-02T03:07:52;97214.13;;;21.10;61.83
70952;BME280;69214;55.880;37.542;2023-07-02T03:10:18;97232.69;;;20.78;62.72
70952;BME280;69214;55.880;37.542;2023-07-02T03:12:46;97239.03;;;20.50;63.46
70952;BME280;69214;55.880;37.542;2023-07-02T03:15:12;97254.31;;;20.20;64.18
70952;BME280;69214;55.880;37.542;2023-07-02T03:17:38;97253.41;;;19.91;65.28
70952;BME280;69214;55.880;37.542;2023-07-02T03:20:05;97252.81;;;19.61;65.71
70952;BME280;69214;55.880;37.542;2023-07-02T03:22:32;97247.56;;;19.23;66.33
70952;BME280;69214;55.880;37.542;2023-07-02T03:24:58;97254.31;;;19.14;67.09
70952;BME280;69214;55.880;37.542;2023-07-02T03:27:24;97253.81;;;18.99;67.49
70952;BME280;69214;55.880;37.542;2023-07-02T03:29:51;97250.09;;;18.83;68.03
70952;BME280;69214;55.880;37.542;2023-07-02T03:32:17;97256.97;;;18.77;68.17
70952;BME280;69214;55.880;37.542;2023-07-02T03:34:42;97260.75;;;18.72;68.26
70952;BME280;69214;55.880;37.542;2023-07-02T03:37:08;97250.38;;;18.69;68.14
70952;BME280;69214;55.880;37.542;2023-07-02T03:39:34;97239.41;;;18.61;68.39
70952;BME280;69214;55.880;37.542;2023-07-02T03:42:00;97260.16;;;18.67;68.77
70952;BME280;69214;55.880;37.542;2023-07-02T03:44:26;97255.34;;;18.76;68.54
70952;BME280;69214;55.880;37.542;2023-07-02T03:46:52;97264.50;;;18.89;68.02
70952;BME280;69214;55.880;37.542;2023-07-02T03:49:18;97263.38;;;19.02;67.68
70952;BME280;69214;55.880;37.542;2023-07-02T03:51:44;97272.22;;;19.28;66.61
70952;BME280;69214;55.880;37.542;2023-07-02T03:54:10;97269.38;;;19.49;66.18
70952;BME280;69214;55.880;37.542;2023-07-02T03:56:36;97272.09;;;19.82;65.02
70952;BME280;69214;55.880;37.542;2023-07-02T03:59:02;97273.91;;;20.27;63.87
70952;BME280;69214;55.880;37.542;2023-07-02T04:01:28;97260.56;;;20.69;62.63
70952;BME280;69214;55.880;37.542;2023-07-02T04:03:54;97249.47;;;21.13;61.72
70952;BME280;69214;55.880;37.542;2023-07-02T04:06:20;97261.19;;;22.13;59.06
70952;BME280;69214;55.880;37.542;2023-07-02T04:08:46;97267.84;;;23.82;55.20
70952;BME280;69214;55.880;37.542;2023-07-02T04:11:12;97267.91;;;25.25;51.26
70952;BME280;69214;55.880;37.542;2023-07-02T04:13:38;97262.94;;;26.36;49.24
70952;BME280;69214;55.880;37.542;2023-07-02T04:16:05;97270.34;;;28.17;45.94
70952;BME280;69214;55.880;37.542;2023-07-02T04:18:31;97258.59;;;29.73;42.11
70952;BME280;69214;55.880;37.542;2023-07-02T04:20:57;97274.50;;;30.87;40.76
70952;BME280;69214;55.880;37.542;2023-07-02T04:23:25;97283.22;;;31.00;39.67
70952;BME280;69214;55.880;37.542;2023-07-02T04:25:50;97281.09;;;30.73;40.18
70952;BME280;69214;55.880;37.542;2023-07-02T04:28:16;97287.25;;;30.61;40.33
70952;BME280;69214;55.880;37.542;2023-07-02T04:30:42;97283.81;;;30.39;40.65
70952;BME280;69214;55.880;37.542;2023-07-02T04:33:08;97279.75;;;29.92;41.84
70952;BME280;69214;55.880;37.542;2023-07-02T04:35:34;97283.78;;;29.91;41.16
70952;BME280;69214;55.880;37.542;2023-07-02T04:38:01;97286.84;;;29.55;42.26
70952;BME280;69214;55.880;37.542;2023-07-02T04:40:27;97288.53;;;29.35;41.78
70952;BME280;69214;55.880;37.542;2023-07-02T04:42:53;97290.25;;;29.88;41.34
70952;BME280;69214;55.880;37.542;2023-07-02T04:45:24;97287.66;;;31.31;40.70
70952;BME280;69214;55.880;37.542;2023-07-02T04:47:51;97279.22;;;31.58;38.20
70952;BME280;69214;55.880;37.542;2023-07-02T04:50:18;97278.44;;;31.27;38.93
70952;BME280;69214;55.880;37.542;2023-07-02T04:52:44;97281.59;;;30.99;38.68
70952;BME280;69214;55.880;37.542;2023-07-02T04:55:10;97291.50;;;32.02;37.79
70952;BME280;69214;55.880;37.542;2023-07-02T04:57:37;97286.88;;;34.17;34.49
70952;BME280;69214;55.880;37.542;2023-07-02T05:00:03;97282.22;;;36.47;31.98
70952;BME280;69214;55.880;37.542;2023-07-02T05:02:32;97291.09;;;37.62;29.55
70952;BME280;69214;55.880;37.542;2023-07-02T05:04:58;97298.16;;;38.10;28.69
70952;BME280;69214;55.880;37.542;2023-07-02T05:07:24;97287.16;;;39.16;27.60
70952;BME280;69214;55.880;37.542;2023-07-02T05:09:50;97298.34;;;40.59;25.88
70952;BME280;69214;55.880;37.542;2023-07-02T05:12:18;97291.88;;;41.36;24.89
70952;BME280;69214;55.880;37.542;2023-07-02T05:14:44;97278.94;;;41.26;24.66
70952;BME280;69214;55.880;37.542;2023-07-02T05:17:10;97285.13;;;40.62;24.75
70952;BME280;69214;55.880;37.542;2023-07-02T05:19:36;97281.16;;;39.05;26.56
70952;BME280;69214;55.880;37.542;2023-07-02T05:22:02;97285.78;;;38.44;27.06
70952;BME280;69214;55.880;37.542;2023-07-02T05:24:28;97297.75;;;38.79;27.08
70952;BME280;69214;55.880;37.542;2023-07-02T05:26:54;97288.97;;;39.74;25.31
70952;BME280;69214;55.880;37.542;2023-07-02T05:29:19;97284.47;;;40.91;24.38
70952;BME280;69214;55.880;37.542;2023-07-02T05:31:45;97300.00;;;41.52;23.92
70952;BME280;69214;55.880;37.542;2023-07-02T05:34:11;97292.03;;;42.35;23.15
70952;BME280;69214;55.880;37.542;2023-07-02T05:36:37;97298.50;;;42.86;23.73
70952;BME280;69214;55.880;37.542;2023-07-02T05:39:03;97295.13;;;43.28;22.12
70952;BME280;69214;55.880;37.542;2023-07-02T05:41:29;97286.94;;;43.99;20.92
70952;BME280;69214;55.880;37.542;2023-07-02T05:43:57;97297.84;;;45.06;21.62
70952;BME280;69214;55.880;37.542;2023-07-02T05:46:23;97300.69;;;45.88;19.78
70952;BME280;69214;55.880;37.542;2023-07-02T05:48:49;97304.09;;;46.53;18.50
70952;BME280;69214;55.880;37.542;2023-07-02T05:51:23;97299.19;;;47.12;23.64
70952;BME280;69214;55.880;37.542;2023-07-02T05:53:50;97303.25;;;47.38;19.05
70952;BME280;69214;55.880;37.542;2023-07-02T05:56:16;97300.75;;;47.18;18.42
70952;BME280;69214;55.880;37.542;2023-07-02T05:58:42;97297.44;;;47.50;18.02
70952;BME280;69214;55.880;37.542;2023-07-02T06:01:08;97310.56;;;48.27;17.35
70952;BME280;69214;55.880;37.542;2023-07-02T06:03:34;97304.63;;;48.69;16.84
70952;BME280;69214;55.880;37.542;2023-07-02T06:06:00;97303.91;;;48.87;16.95
70952;BME280;69214;55.880;37.542;2023-07-02T06:08:25;97305.97;;;48.92;16.81
70952;BME280;69214;55.880;37.542;2023-07-02T06:10:52;97303.16;;;49.05;16.05
70952;BME280;69214;55.880;37.542;2023-07-02T06:13:17;97278.09;;;48.64;16.60
70952;BME280;69214;55.880;37.542;2023-07-02T06:15:43;97302.25;;;48.43;16.63
70952;BME280;69214;55.880;37.542;2023-07-02T06:18:09;97300.22;;;48.86;16.64
70952;BME280;69214;55.880;37.542;2023-07-02T06:20:35;97309.41;;;49.71;15.77
70952;BME280;69214;55.880;37.542;2023-07-02T06:23:01;97298.31;;;50.52;14.99
70952;BME280;69214;55.880;37.542;2023-07-02T06:25:27;97305.50;;;51.17;14.88
70952;BME280;69214;55.880;37.542;2023-07-02T06:27:52;97303.16;;;50.90;15.15
70952;BME280;69214;55.880;37.542;2023-07-02T06:30:22;97307.72;;;51.11;17.05
70952;BME280;69214;55.880;37.542;2023-07-02T06:32:47;97307.97;;;51.61;14.58
70952;BME280;69214;55.880;37.542;2023-07-02T06:35:13;97306.22;;;52.12;13.89
70952;BME280;69214;55.880;37.542;2023-07-02T06:37:39;97308.69;;;50.61;14.61
70952;BME280;69214;55.880;37.542;2023-07-02T06:40:06;97303.03;;;49.16;16.37
70952;BME280;69214;55.880;37.542;2023-07-02T06:42:32;97309.09;;;49.56;15.25
70952;BME280;69214;55.880;37.542;2023-07-02T06:44:59;97299.34;;;50.23;14.41
70952;BME280;69214;55.880;37.542;2023-07-02T06:47:24;97313.81;;;50.42;13.74
70952;BME280;69214;55.880;37.542;2023-07-02T06:49:52;97302.69;;;51.12;15.83
70952;BME280;69214;55.880;37.542;2023-07-02T06:52:19;97313.56;;;51.72;13.57
70952;BME280;69214;55.880;37.542;2023-07-02T06:54:45;97314.03;;;52.38;13.13
70952;BME280;69214;55.880;37.542;2023-07-02T06:57:12;97304.72;;;53.25;14.50
70952;BME280;69214;55.880;37.542;2023-07-02T06:59:38;97310.47;;;53.10;12.58
70952;BME280;69214;55.880;37.542;2023-07-02T07:02:04;97304.72;;;51.30;13.33
70952;BME280;69214;55.880;37.542;2023-07-02T07:04:30;97296.81;;;48.03;14.82
70952;BME280;69214;55.880;37.542;2023-07-02T07:06:56;97284.59;;;44.71;17.22
70952;BME280;69214;55.880;37.542;2023-07-02T07:09:22;97303.63;;;41.97;19.95
70952;BME280;69214;55.880;37.542;2023-07-02T07:11:47;97297.53;;;39.83;21.63
70952;BME280;69214;55.880;37.542;2023-07-02T07:14:13;97290.50;;;37.98;23.52
70952;BME280;69214;55.880;37.542;2023-07-02T07:16:39;97298.19;;;36.32;25.91
70952;BME280;69214;55.880;37.542;2023-07-02T07:19:05;97308.25;;;34.99;27.72
70952;BME280;69214;55.880;37.542;2023-07-02T07:21:34;97302.97;;;34.20;28.73
70952;BME280;69214;55.880;37.542;2023-07-02T07:24:00;97307.00;;;34.38;28.18
70952;BME280;69214;55.880;37.542;2023-07-02T07:26:26;97304.16;;;34.55;28.48
70952;BME280;69214;55.880;37.542;2023-07-02T07:28:52;97315.09;;;34.20;28.90
70952;BME280;69214;55.880;37.542;2023-07-02T07:31:20;97301.75;;;33.48;29.42
70952;BME280;69214;55.880;37.542;2023-07-02T07:33:46;97301.69;;;32.46;30.72
70952;BME280;69214;55.880;37.542;2023-07-02T07:36:11;97308.41;;;31.44;32.04
70952;BME280;69214;55.880;37.542;2023-07-02T07:38:38;97311.06;;;30.49;33.55
70952;BME280;69214;55.880;37.542;2023-07-02T07:41:04;97322.47;;;29.76;34.33
70952;BME280;69214;55.880;37.542;2023-07-02T07:43:29;97323.50;;;30.04;34.40
70952;BME280;69214;55.880;37.542;2023-07-02T07:45:55;97308.00;;;32.30;30.87
70952;BME280;69214;55.880;37.542;2023-07-02T07:48:21;97314.88;;;35.37;27.60
70952;BME280;69214;55.880;37.542;2023-07-02T07:50:47;97316.84;;;37.80;24.03
70952;BME280;69214;55.880;37.542;2023-07-02T07:53:13;97292.19;;;38.67;23.17
70952;BME280;69214;55.880;37.542;2023-07-02T07:55:39;97299.69;;;40.07;21.85
70952;BME280;69214;55.880;37.542;2023-07-02T07:58:05;97314.31;;;41.67;20.78
70952;BME280;69214;55.880;37.542;2023-07-02T08:00:30;97319.31;;;43.01;19.32
70952;BME280;69214;55.880;37.542;2023-07-02T08:02:56;97309.63;;;43.91;18.29
70952;BME280;69214;55.880;37.542;2023-07-02T08:05:23;97317.84;;;44.78;17.89
70952;BME280;69214;55.880;37.542;2023-07-02T08:07:51;97307.78;;;44.99;17.46
70952;BME280;69214;55.880;37.542;2023-07-02T08:10:19;97315.16;;;44.26;18.00
70952;BME280;69214;55.880;37.542;2023-07-02T08:12:45;97313.22;;;43.14;18.27
70952;BME280;69214;55.880;37.542;2023-07-02T08:15:13;97330.28;;;41.29;20.00
70952;BME280;69214;55.880;37.542;2023-07-02T08:17:38;97327.44;;;39.28;21.86
70952;BME280;69214;55.880;37.542;2023-07-02T08:20:04;97315.94;;;37.40;23.28
70952;BME280;69214;55.880;37.542;2023-07-02T08:22:36;97333.84;;;35.82;25.70
70952;BME280;69214;55.880;37.542;2023-07-02T08:25:02;97340.00;;;34.45;27.06
70952;BME280;69214;55.880;37.542;2023-07-02T08:27:29;97325.41;;;33.38;27.78
70952;BME280;69214;55.880;37.542;2023-07-02T08:29:56;97331.94;;;32.69;29.37
70952;BME280;69214;55.880;37.542;2023-07-02T08:32:21;97325.84;;;32.24;29.99
70952;BME280;69214;55.880;37.542;2023-07-02T08:34:47;97321.41;;;31.69;30.46
70952;BME280;69214;55.880;37.542;2023-07-02T08:37:13;97331.91;;;31.34;31.12
70952;BME280;69214;55.880;37.542;2023-07-02T08:39:39;97327.03;;;31.04;31.47
70952;BME280;69214;55.880;37.542;2023-07-02T08:42:05;97331.28;;;30.82;31.75
70952;BME280;69214;55.880;37.542;2023-07-02T08:44:31;97316.25;;;30.58;31.57
70952;BME280;69214;55.880;37.542;2023-07-02T08:46:58;97337.72;;;30.38;32.25
70952;BME280;69214;55.880;37.542;2023-07-02T08:49:24;97318.97;;;30.17;32.71
70952;BME280;69214;55.880;37.542;2023-07-02T08:51:51;97329.75;;;30.29;32.04
70952;BME280;69214;55.880;37.542;2023-07-02T08:54:17;97331.00;;;30.24;32.13
70952;BME280;69214;55.880;37.542;2023-07-02T08:56:44;97331.25;;;29.85;32.92
70952;BME280;69214;55.880;37.542;2023-07-02T08:59:11;97329.47;;;29.32;34.02
70952;BME280;69214;55.880;37.542;2023-07-02T09:01:48;97323.59;;;28.77;33.31
70952;BME280;69214;55.880;37.542;2023-07-02T09:04:19;97339.69;;;28.55;34.67
70952;BME280;69214;55.880;37.542;2023-07-02T09:06:46;97303.19;;;28.16;36.19
70952;BME280;69214;55.880;37.542;2023-07-02T09:09:12;97326.44;;;28.06;36.21
70952;BME280;69214;55.880;37.542;2023-07-02T09:11:48;97327.19;;;27.71;35.35
70952;BME280;69214;55.880;37.542;2023-07-02T09:14:31;97331.03;;;27.34;34.93
70952;BME280;69214;55.880;37.542;2023-07-02T09:17:08;97320.94;;;27.12;35.35
70952;BME280;69214;55.880;37.542;2023-07-02T09:19:35;97330.50;;;27.00;37.34
70952;BME280;69214;55.880;37.542;2023-07-02T09:22:02;97336.91;;;27.04;36.95
70952;BME280;69214;55.880;37.542;2023-07-02T09:24:30;97334.56;;;27.14;37.06
70952;BME280;69214;55.880;37.542;2023-07-02T09:26:59;97329.78;;;27.18;36.49
70952;BME280;69214;55.880;37.542;2023-07-02T09:29:26;97336.94;;;27.12;36.31
70952;BME280;69214;55.880;37.542;2023-07-02T09:32:04;97343.72;;;27.07;35.42
70952;BME280;69214;55.880;37.542;2023-07-02T09:34:35;97328.94;;;27.10;34.93
70952;BME280;69214;55.880;37.542;2023-07-02T09:37:02;97335.41;;;27.25;35.44
70952;BME280;69214;55.880;37.542;2023-07-02T09:39:30;97341.00;;;27.21;35.63
70952;BME280;69214;55.880;37.542;2023-07-02T09:41:58;97336.59;;;27.24;34.78
70952;BME280;69214;55.880;37.542;2023-07-02T09:44:28;97326.28;;;27.49;34.74
70952;BME280;69214;55.880;37.542;2023-07-02T09:47:06;97329.56;;;27.65;34.05
70952;BME280;69214;55.880;37.542;2023-07-02T09:49:43;97323.16;;;27.61;34.59
70952;BME280;69214;55.880;37.542;2023-07-02T09:52:11;97328.28;;;27.45;34.58
70952;BME280;69214;55.880;37.542;2023-07-02T09:54:38;97333.06;;;27.41;34.31
70952;BME280;69214;55.880;37.542;2023-07-02T09:57:04;97326.22;;;27.31;34.26
70952;BME280;69214;55.880;37.542;2023-07-02T09:59:31;97318.50;;;27.03;34.18
70952;BME280;69214;55.880;37.542;2023-07-02T10:01:58;97321.69;;;27.02;33.95
70952;BME280;69214;55.880;37.542;2023-07-02T10:04:24;97330.13;;;27.09;34.81
70952;BME280;69214;55.880;37.542;2023-07-02T10:06:50;97333.34;;;27.15;35.03
70952;BME280;69214;55.880;37.542;2023-07-02T10:09:19;97331.41;;;27.26;34.07
70952;BME280;69214;55.880;37.542;2023-07-02T10:11:45;97334.22;;;27.29;33.62
70952;BME280;69214;55.880;37.542;2023-07-02T10:14:11;97347.00;;;27.27;33.39
70952;BME280;69214;55.880;37.542;2023-07-02T10:16:54;97340.97;;;27.18;34.27
70952;BME280;69214;55.880;37.542;2023-07-02T10:19:21;97343.28;;;27.01;33.96
70952;BME280;69214;55.880;37.542;2023-07-02T10:22:03;97337.53;;;26.80;34.59
70952;BME280;69214;55.880;37.542;2023-07-02T10:24:29;97329.31;;;26.46;34.52
70952;BME280;69214;55.880;37.542;2023-07-02T10:29:23;97340.44;;;25.92;35.94
70952;BME280;69214;55.880;37.542;2023-07-02T10:31:56;97331.91;;;25.74;36.39
70952;BME280;69214;55.880;37.542;2023-07-02T10:34:33;97338.28;;;25.74;36.34
70952;BME280;69214;55.880;37.542;2023-07-02T10:37:01;97314.66;;;25.68;36.81
70952;BME280;69214;55.880;37.542;2023-07-02T10:39:29;97332.41;;;25.87;36.00
70952;BME280;69214;55.880;37.542;2023-07-02T10:42:09;97338.16;;;26.04;36.02
70952;BME280;69214;55.880;37.542;2023-07-02T10:44:50;97341.84;;;26.15;35.78
70952;BME280;69214;55.880;37.542;2023-07-02T10:47:16;97344.69;;;26.23;36.40
70952;BME280;69214;55.880;37.542;2023-07-02T10:49:42;97330.47;;;26.38;35.29
70952;BME280;69214;55.880;37.542;2023-07-02T10:52:08;97346.25;;;26.68;35.64
70952;BME280;69214;55.880;37.542;2023-07-02T10:54:47;97331.13;;;26.76;35.02
70952;BME280;69214;55.880;37.542;2023-07-02T10:57:14;97349.09;;;26.75;34.91
70952;BME280;69214;55.880;37.542;2023-07-02T10:59:41;97346.63;;;26.63;35.21
70952;BME280;69214;55.880;37.542;2023-07-02T11:02:08;97343.41;;;26.61;35.32
70952;BME280;69214;55.880;37.542;2023-07-02T11:04:36;97346.25;;;26.64;35.32
70952;BME280;69214;55.880;37.542;2023-07-02T11:07:02;97352.94;;;26.53;35.04
70952;BME280;69214;55.880;37.542;2023-07-02T11:09:28;97348.09;;;26.42;35.43
70952;BME280;69214;55.880;37.542;2023-07-02T11:11:56;97343.94;;;26.29;35.24
70952;BME280;69214;55.880;37.542;2023-07-02T11:14:32;97350.81;;;26.35;35.47
70952;BME280;69214;55.880;37.542;2023-07-02T11:17:03;97352.00;;;26.34;34.96
70952;BME280;69214;55.880;37.542;2023-07-02T11:19:32;97354.88;;;26.41;34.42
70952;BME280;69214;55.880;37.542;2023-07-02T11:21:58;97354.09;;;26.44;34.57
70952;BME280;69214;55.880;37.542;2023-07-02T11:24:37;97349.72;;;26.47;34.79
70952;BME280;69214;55.880;37.542;2023-07-02T11:27:04;97353.06;;;26.67;34.72
70952;BME280;69214;55.880;37.542;2023-07-02T11:29:36;97349.13;;;26.78;34.73
70952;BME280;69214;55.880;37.542;2023-07-02T11:32:11;97364.38;;;26.85;34.49
70952;BME280;69214;55.880;37.542;2023-07-02T11:34:38;97355.09;;;26.73;34.72
70952;BME280;69214;55.880;37.542;2023-07-02T11:37:04;97353.84;;;26.64;34.87
70952;BME280;69214;55.880;37.542;2023-07-02T11:39:31;97369.97;;;26.88;34.96
70952;BME280;69214;55.880;37.542;2023-07-02T11:41:57;97356.53;;;27.08;34.35
70952;BME280;69214;55.880;37.542;2023-07-02T11:44:23;97357.88;;;27.39;34.16
70952;BME280;69214;55.880;37.542;2023-07-02T11:46:49;97364.03;;;27.73;33.32
70952;BME280;69214;55.880;37.542;2023-07-02T11:49:15;97359.69;;;28.04;33.13
70952;BME280;69214;55.880;37.542;2023-07-02T11:51:43;97347.31;;;28.23;32.55
70952;BME280;69214;55.880;37.542;2023-07-02T11:54:16;97357.31;;;28.31;32.65
70952;BME280;69214;55.880;37.542;2023-07-02T11:56:44;97359.72;;;28.43;32.57
70952;BME280;69214;55.880;37.542;2023-07-02T11:59:10;97348.91;;;28.45;32.60
70952;BME280;69214;55.880;37.542;2023-07-02T12:01:36;97359.31;;;28.55;32.41
70952;BME280;69214;55.880;37.542;2023-07-02T12:04:02;97357.31;;;28.59;32.47
70952;BME280;69214;55.880;37.542;2023-07-02T12:06:28;97358.13;;;28.46;32.56
70952;BME280;69214;55.880;37.542;2023-07-02T12:08:54;97352.13;;;28.29;32.58
70952;BME280;69214;55.880;37.542;2023-07-02T12:11:20;97366.50;;;28.10;32.52
70952;BME280;69214;55.880;37.542;2023-07-02T12:13:46;97364.84;;;27.84;32.54
70952;BME280;69214;55.880;37.542;2023-07-02T12:16:11;97366.00;;;27.62;32.55
70952;BME280;69214;55.880;37.542;2023-07-02T12:18:37;97365.84;;;27.33;32.19
70952;BME280;69214;55.880;37.542;2023-07-02T12:21:03;97380.59;;;27.20;33.09
70952;BME280;69214;55.880;37.542;2023-07-02T12:23:29;97362.97;;;27.16;33.08
70952;BME280;69214;55.880;37.542;2023-07-02T12:25:55;97358.13;;;27.05;33.42
70952;BME280;69214;55.880;37.542;2023-07-02T12:28:21;97368.84;;;26.96;33.38
70952;BME280;69214;55.880;37.542;2023-07-02T12:30:47;97357.47;;;26.68;33.99
70952;BME280;69214;55.880;37.542;2023-07-02T12:33:12;97364.59;;;26.62;34.10
70952;BME280;69214;55.880;37.542;2023-07-02T12:35:38;97364.34;;;26.81;34.33
70952;BME280;69214;55.880;37.542;2023-07-02T12:38:04;97356.53;;;27.08;33.55
70952;BME280;69214;55.880;37.542;2023-07-02T12:40:33;97360.28;;;27.40;33.30
70952;BME280;69214;55.880;37.542;2023-07-02T12:42:59;97363.94;;;27.52;33.14
70952;BME280;69214;55.880;37.542;2023-07-02T12:45:25;97357.13;;;27.53;32.75
70952;BME280;69214;55.880;37.542;2023-07-02T12:47:50;97365.94;;;27.51;32.23
70952;BME280;69214;55.880;37.542;2023-07-02T12:50:16;97371.94;;;27.57;31.76
70952;BME280;69214;55.880;37.542;2023-07-02T12:52:42;97366.41;;;27.64;31.62